sensor_id;sensor_type;location;lat;lon;timestamp;pressure;altitude;pressure_sealevel;temperature;humidity
37648;BME280;23490;53.656;10.076;2023-02-04T00:00:44;99777.38;;;-145.95;97.82
37648;BME280;23490;53.656;10.076;2023-02-04T00:03:10;99731.94;;;-145.95;96.54
37648;BME280;23490;53.656;10.076;2023-02-04T00:05:35;99744.31;;;-145.95;97.02
37648;BME280;23490;53.656;10.076;2023-02-04T00:08:01;99698.88;;;-145.95;96.63
37648;BME280;23490;53.656;10.076;2023-02-04T00:10:26;99719.53;;;-145.95;97.03
37648;BME280;23490;53.656;10.076;2023-02-04T00:12:52;99746.38;;;-145.95;96.72
37648;BME280;23490;53.656;10.076;2023-02-04T00:15:17;99740.19;;;-145.95;98.31
37648;BME280;23490;53.656;10.076;2023-02-04T00:17:42;99736.06;;;-145.95;97.82
37648;BME280;23490;53.656;10.076;2023-02-04T00:20:08;99729.88;;;-145.95;98.37
37648;BME280;23490;53.656;10.076;2023-02-04T00:22:34;99750.53;;;-145.95;96.46
37648;BME280;23490;53.656;10.076;2023-02-04T00:24:59;99754.66;;;-145.95;96.51
37648;BME280;23490;53.656;10.076;2023-02-04T00:27:25;99764.97;;;-145.95;97.92
37648;BME280;23490;53.656;10.076;2023-02-04T00:29:50;99752.59;;;-145.95;97.96
37648;BME280;23490;53.656;10.076;2023-02-04T00:32:15;99703.00;;;-145.95;98.92
37648;BME280;23490;53.656;10.076;2023-02-04T00:34:41;99798.03;;;-145.95;98.10
37648;BME280;23490;53.656;10.076;2023-02-04T00:37:06;99762.91;;;-145.95;98.09
37648;BME280;23490;53.656;10.076;2023-02-04T00:39:31;99754.66;;;-145.95;98.87
37648;BME280;23490;53.656;10.076;2023-02-04T00:41:57;99773.25;;;-145.95;99.91
37648;BME280;23490;53.656;10.076;2023-02-04T00:44:22;99762.91;;;-145.95;99.77
37648;BME280;23490;53.656;10.076;2023-02-04T00:46:47;99810.41;;;-145.95;100.00
37648;BME280;23490;53.656;10.076;2023-02-04T00:49:13;99748.44;;;-145.95;100.00
37648;BME280;23490;53.656;10.076;2023-02-04T00:51:39;99775.31;;;-145.95;99.41
37648;BME280;23490;53.656;10.076;2023-02-04T00:54:08;99787.69;;;-145.95;100.00
37648;BME280;23490;53.656;10.076;2023-02-04T00:56:33;99781.50;;;-145.95;100.00
37648;BME280;23490;53.656;10.076;2023-02-04T00:58:59;99824.88;;;-145.95;100.00
37648;BME280;23490;53.656;10.076;2023-02-04T01:01:24;99769.13;;;-145.95;100.00
37648;BME280;23490;53.656;10.076;2023-02-04T01:03:49;99791.81;;;-145.95;100.00
37648;BME280;23490;53.656;10.076;2023-02-04T01:06:15;99802.16;;;-145.95;100.00
37648;BME280;23490;53.656;10.076;2023-02-04T01:08:40;99793.91;;;-145.95;100.00
37648;BME280;23490;53.656;10.076;2023-02-04T01:11:05;99793.91;;;-145.95;100.00
37648;BME280;23490;53.656;10.076;2023-02-04T01:13:31;99787.69;;;-145.95;100.00
37648;BME280;23490;53.656;10.076;2023-02-04T01:15:56;99789.75;;;-145.95;100.00
37648;BME280;23490;53.656;10.076;2023-02-04T01:18:22;99802.16;;;-145.95;100.00
37648;BME280;23490;53.656;10.076;2023-02-04T01:20:47;99802.16;;;-145.95;100.00
37648;BME280;23490;53.656;10.076;2023-02-04T01:23:13;99810.41;;;-145.95;100.00
37648;BME280;23490;53.656;10.076;2023-02-04T01:25:38;99781.50;;;-145.95;100.00
37648;BME280;23490;53.656;10.076;2023-02-04T01:28:04;99785.63;;;-145.95;100.00
37648;BME280;23490;53.656;10.076;2023-02-04T01:30:29;99793.91;;;-145.95;100.00
37648;BME280;23490;53.656;10.076;2023-02-04T01:32:55;99723.66;;;-145.95;100.00
37648;BME280;23490;53.656;10.076;2023-02-04T01:35:20;99798.03;;;-145.95;100.00
37648;BME280;23490;53.656;10.076;2023-02-04T01:37:45;99810.41;;;-145.95;100.00
37648;BME280;23490;53.656;10.076;2023-02-04T01:40:11;99777.38;;;-145.95;100.00
37648;BME280;23490;53.656;10.076;2023-02-04T01:42:37;99795.97;;;-145.95;100.00
37648;BME280;23490;53.656;10.076;2023-02-04T01:45:03;99793.91;;;-145.95;100.00
37648;BME280;23490;53.656;10.076;2023-02-04T01:47:30;99804.22;;;-145.95;100.00
37648;BME280;23490;53.656;10.076;2023-02-04T01:49:56;99843.47;;;-145.95;100.00
37648;BME280;23490;53.656;10.076;2023-02-04T01:52:22;99812.47;;;-145.95;100.00
37648;BME280;23490;53.656;10.076;2023-02-04T01:54:48;99798.03;;;-145.95;100.00
37648;BME280;23490;53.656;10.076;2023-02-04T01:57:15;99777.38;;;-145.95;100.00
37648;BME280;23490;53.656;10.076;2023-02-04T01:59:45;99795.97;;;-145.95;100.00
37648;BME280;23490;53.656;10.076;2023-02-04T02:02:37;99820.75;;;-145.95;100.00
37648;BME280;23490;53.656;10.076;2023-02-04T02:05:04;99806.28;;;-145.95;100.00
37648;BME280;23490;53.656;10.076;2023-02-04T02:07:29;99802.16;;;-145.95;100.00
37648;BME280;23490;53.656;10.076;2023-02-04T02:09:55;99781.50;;;-145.95;100.00
37648;BME280;23490;53.656;10.076;2023-02-04T02:12:20;99781.50;;;-145.95;100.00
37648;BME280;23490;53.656;10.076;2023-02-04T02:14:45;99793.91;;;-145.95;100.00
37648;BME280;23490;53.656;10.076;2023-02-04T02:17:11;99829.00;;;-145.95;100.00
37648;BME280;23490;53.656;10.076;2023-02-04T02:19:37;99824.88;;;-145.95;100.00
37648;BME280;23490;53.656;10.076;2023-02-04T02:22:27;99802.16;;;-145.95;100.00
37648;BME280;23490;53.656;10.076;2023-02-04T02:24:53;99835.19;;;-145.95;100.00
37648;BME280;23490;53.656;10.076;2023-02-04T02:27:19;99806.28;;;-145.95;100.00
37648;BME280;23490;53.656;10.076;2023-02-04T02:29:45;99777.38;;;-145.95;100.00
37648;BME280;23490;53.656;10.076;2023-02-04T02:32:12;99769.13;;;-145.95;100.00
37648;BME280;23490;53.656;10.076;2023-02-04T02:34:38;99837.28;;;-145.95;100.00
37648;BME280;23490;53.656;10.076;2023-02-04T02:37:06;99802.16;;;-145.95;100.00
37648;BME280;23490;53.656;10.076;2023-02-04T02:39:34;99826.94;;;-145.95;100.00
37648;BME280;23490;53.656;10.076;2023-02-04T02:42:00;99814.56;;;-145.95;100.00
37648;BME280;23490;53.656;10.076;2023-02-04T02:44:25;99839.34;;;-145.95;100.00
37648;BME280;23490;53.656;10.076;2023-02-04T02:46:52;99847.59;;;-145.95;100.00
37648;BME280;23490;53.656;10.076;2023-02-04T02:49:18;99824.88;;;-145.95;100.00
37648;BME280;23490;53.656;10.076;2023-02-04T02:51:44;99868.25;;;-145.95;100.00
37648;BME280;23490;53.656;10.076;2023-02-04T02:54:21;99872.38;;;-145.95;100.00
37648;BME280;23490;53.656;10.076;2023-02-04T02:56:46;99876.50;;;-145.95;100.00
37648;BME280;23490;53.656;10.076;2023-02-04T02:59:13;99868.25;;;-145.95;100.00
37648;BME280;23490;53.656;10.076;2023-02-04T03:01:39;99880.66;;;-145.95;100.00
37648;BME280;23490;53.656;10.076;2023-02-04T03:04:05;99884.78;;;-145.95;100.00
37648;BME280;23490;53.656;10.076;2023-02-04T03:06:30;99864.13;;;-145.95;100.00
37648;BME280;23490;53.656;10.076;2023-02-04T03:08:56;99818.69;;;-145.95;100.00
37648;BME280;23490;53.656;10.076;2023-02-04T03:11:22;99851.72;;;-145.95;100.00
37648;BME280;23490;53.656;10.076;2023-02-04T03:13:49;99868.25;;;-145.95;100.00
37648;BME280;23490;53.656;10.076;2023-02-04T03:16:15;99893.03;;;-145.95;100.00
37648;BME280;23490;53.656;10.076;2023-02-04T03:18:40;99884.78;;;-145.95;100.00
37648;BME280;23490;53.656;10.076;2023-02-04T03:21:06;99876.50;;;-145.95;100.00
37648;BME280;23490;53.656;10.076;2023-02-04T03:23:34;99866.19;;;-145.95;100.00
37648;BME280;23490;53.656;10.076;2023-02-04T03:26:00;99880.66;;;-145.95;100.00
37648;BME280;23490;53.656;10.076;2023-02-04T03:28:26;99919.88;;;-145.95;100.00
37648;BME280;23490;53.656;10.076;2023-02-04T03:30:51;99897.16;;;-145.95;100.00
37648;BME280;23490;53.656;10.076;2023-02-04T03:33:22;99913.69;;;-145.95;100.00
37648;BME280;23490;53.656;10.076;2023-02-04T03:35:47;99893.03;;;-145.95;100.00
37648;BME280;23490;53.656;10.076;2023-02-04T03:38:12;99884.78;;;-145.95;100.00
37648;BME280;23490;53.656;10.076;2023-02-04T03:40:37;99893.03;;;-145.95;100.00
37648;BME280;23490;53.656;10.076;2023-02-04T03:43:03;99855.84;;;-145.95;100.00
37648;BME280;23490;53.656;10.076;2023-02-04T03:45:28;99822.81;;;-145.95;100.00
37648;BME280;23490;53.656;10.076;2023-02-04T03:47:53;99901.31;;;-145.95;100.00
37648;BME280;23490;53.656;10.076;2023-02-04T03:50:19;99884.78;;;-145.95;100.00
37648;BME280;23490;53.656;10.076;2023-02-04T03:52:44;99897.16;;;-145.95;100.00
37648;BME280;23490;53.656;10.076;2023-02-04T03:55:09;99841.41;;;-145.95;100.00
37648;BME280;23490;53.656;10.076;2023-02-04T03:57:35;99874.44;;;-145.95;100.00
37648;BME280;23490;53.656;10.076;2023-02-04T04:00:00;99884.78;;;-145.95;100.00
37648;BME280;23490;53.656;10.076;2023-02-04T04:02:25;99826.94;;;-145.95;100.00
37648;BME280;23490;53.656;10.076;2023-02-04T04:04:51;99868.25;;;-145.95;100.00
37648;BME280;23490;53.656;10.076;2023-02-04T04:07:16;99870.31;;;-145.95;100.00
37648;BME280;23490;53.656;10.076;2023-02-04T04:09:42;99872.38;;;-145.95;100.00
37648;BME280;23490;53.656;10.076;2023-02-04T04:12:07;99860.00;;;-145.95;100.00
37648;BME280;23490;53.656;10.076;2023-02-04T04:14:32;99864.13;;;-145.95;100.00
37648;BME280;23490;53.656;10.076;2023-02-04T04:16:58;99893.03;;;-145.95;100.00
37648;BME280;23490;53.656;10.076;2023-02-04T04:19:23;99890.97;;;-145.95;100.00
37648;BME280;23490;53.656;10.076;2023-02-04T04:21:49;99884.78;;;-145.95;100.00
37648;BME280;23490;53.656;10.076;2023-02-04T04:24:14;99864.13;;;-145.95;100.00
37648;BME280;23490;53.656;10.076;2023-02-04T04:26:39;99878.56;;;-145.95;100.00
37648;BME280;23490;53.656;10.076;2023-02-04T04:29:04;99876.50;;;-145.95;100.00
37648;BME280;23490;53.656;10.076;2023-02-04T04:31:30;99882.72;;;-145.95;100.00
37648;BME280;23490;53.656;10.076;2023-02-04T04:33:55;99897.16;;;-145.95;100.00
37648;BME280;23490;53.656;10.076;2023-02-04T04:36:20;99872.38;;;-145.95;100.00
37648;BME280;23490;53.656;10.076;2023-02-04T04:38:46;99876.50;;;-145.95;100.00
37648;BME280;23490;53.656;10.076;2023-02-04T04:41:11;99880.66;;;-145.95;100.00
37648;BME280;23490;53.656;10.076;2023-02-04T04:43:36;99870.31;;;-145.95;100.00
37648;BME280;23490;53.656;10.076;2023-02-04T04:46:02;99837.28;;;-145.95;100.00
37648;BME280;23490;53.656;10.076;2023-02-04T04:48:27;99841.41;;;-145.95;100.00
37648;BME280;23490;53.656;10.076;2023-02-04T04:50:52;99847.59;;;-145.95;100.00
37648;BME280;23490;53.656;10.076;2023-02-04T04:53:17;99897.16;;;-145.95;100.00
37648;BME280;23490;53.656;10.076;2023-02-04T04:55:43;99876.50;;;-145.95;100.00
37648;BME280;23490;53.656;10.076;2023-02-04T04:58:08;99890.97;;;-145.95;100.00
37648;BME280;23490;53.656;10.076;2023-02-04T05:00:33;99874.44;;;-145.95;100.00
37648;BME280;23490;53.656;10.076;2023-02-04T05:02:59;99835.19;;;-145.95;100.00
37648;BME280;23490;53.656;10.076;2023-02-04T05:05:25;99868.25;;;-145.95;100.00
37648;BME280;23490;53.656;10.076;2023-02-04T05:07:50;99876.50;;;-145.95;100.00
37648;BME280;23490;53.656;10.076;2023-02-04T05:10:17;99826.94;;;-145.95;100.00
37648;BME280;23490;53.656;10.076;2023-02-04T05:12:43;99822.81;;;-145.95;100.00
37648;BME280;23490;53.656;10.076;2023-02-04T05:15:08;99855.84;;;-145.95;100.00
37648;BME280;23490;53.656;10.076;2023-02-04T05:17:34;99884.78;;;-145.95;100.00
37648;BME280;23490;53.656;10.076;2023-02-04T05:19:59;99868.25;;;-145.95;100.00
37648;BME280;23490;53.656;10.076;2023-02-04T05:22:24;99872.38;;;-145.95;100.00
37648;BME280;23490;53.656;10.076;2023-02-04T05:24:50;99860.00;;;-145.95;100.00
37648;BME280;23490;53.656;10.076;2023-02-04T05:27:15;99857.94;;;-145.95;100.00
37648;BME280;23490;53.656;10.076;2023-02-04T05:29:40;99855.84;;;-145.95;100.00
37648;BME280;23490;53.656;10.076;2023-02-04T05:32:06;99868.25;;;-145.95;100.00
37648;BME280;23490;53.656;10.076;2023-02-04T05:34:31;99880.66;;;-145.95;100.00
37648;BME280;23490;53.656;10.076;2023-02-04T05:36:57;99870.31;;;-145.95;100.00
37648;BME280;23490;53.656;10.076;2023-02-04T05:39:22;99880.66;;;-145.95;100.00
37648;BME280;23490;53.656;10.076;2023-02-04T05:41:47;99880.66;;;-145.95;100.00
37648;BME280;23490;53.656;10.076;2023-02-04T05:44:12;99890.97;;;-145.95;100.00
37648;BME280;23490;53.656;10.076;2023-02-04T05:46:38;99905.44;;;-145.95;100.00
37648;BME280;23490;53.656;10.076;2023-02-04T05:49:03;99895.09;;;-145.95;100.00
37648;BME280;23490;53.656;10.076;2023-02-04T05:51:29;99905.44;;;-145.95;100.00
37648;BME280;23490;53.656;10.076;2023-02-04T05:53:54;99901.31;;;-145.95;100.00
37648;BME280;23490;53.656;10.076;2023-02-04T05:56:19;99930.22;;;-145.95;100.00
37648;BME280;23490;53.656;10.076;2023-02-04T05:58:45;99880.66;;;-145.95;100.00
37648;BME280;23490;53.656;10.076;2023-02-04T06:01:11;99924.03;;;-145.95;100.00
37648;BME280;23490;53.656;10.076;2023-02-04T06:03:36;99919.88;;;-145.95;100.00
37648;BME280;23490;53.656;10.076;2023-02-04T06:06:01;99913.69;;;-145.95;100.00
37648;BME280;23490;53.656;10.076;2023-02-04T06:08:27;99924.03;;;-145.95;100.00
37648;BME280;23490;53.656;10.076;2023-02-04T06:10:52;99942.59;;;-145.95;100.00
37648;BME280;23490;53.656;10.076;2023-02-04T06:13:17;99977.72;;;-145.95;100.00
37648;BME280;23490;53.656;10.076;2023-02-04T06:15:43;99928.16;;;-145.95;100.00
37648;BME280;23490;53.656;10.076;2023-02-04T06:18:08;99921.94;;;-145.95;100.00
37648;BME280;23490;53.656;10.076;2023-02-04T06:20:34;99963.25;;;-145.95;100.00
37648;BME280;23490;53.656;10.076;2023-02-04T06:22:59;99946.75;;;-145.95;100.00
37648;BME280;23490;53.656;10.076;2023-02-04T06:25:24;99940.53;;;-145.95;100.00
37648;BME280;23490;53.656;10.076;2023-02-04T06:27:50;99888.91;;;-145.95;100.00
37648;BME280;23490;53.656;10.076;2023-02-04T06:30:16;99934.34;;;-145.95;100.00
37648;BME280;23490;53.656;10.076;2023-02-04T06:32:41;99909.56;;;-145.95;100.00
37648;BME280;23490;53.656;10.076;2023-02-04T06:35:07;99985.97;;;-145.95;100.00
37648;BME280;23490;53.656;10.076;2023-02-04T06:37:33;99967.41;;;-145.95;100.00
37648;BME280;23490;53.656;10.076;2023-02-04T06:39:59;99944.69;;;-145.95;100.00
37648;BME280;23490;53.656;10.076;2023-02-04T06:42:24;99948.81;;;-145.95;100.00
37648;BME280;23490;53.656;10.076;2023-02-04T06:44:50;99971.53;;;-145.95;100.00
37648;BME280;23490;53.656;10.076;2023-02-04T06:47:16;99934.34;;;-145.95;100.00
37648;BME280;23490;53.656;10.076;2023-02-04T06:49:42;99907.50;;;-145.95;100.00
37648;BME280;23490;53.656;10.076;2023-02-04T06:52:07;99981.84;;;-145.95;100.00
37648;BME280;23490;53.656;10.076;2023-02-04T06:54:33;99950.88;;;-145.95;100.00
37648;BME280;23490;53.656;10.076;2023-02-04T06:56:58;99942.59;;;-145.95;100.00
37648;BME280;23490;53.656;10.076;2023-02-04T06:59:34;99934.34;;;-145.95;100.00
37648;BME280;23490;53.656;10.076;2023-02-04T07:02:00;99967.41;;;-145.95;100.00
37648;BME280;23490;53.656;10.076;2023-02-04T07:04:25;99938.47;;;-145.95;100.00
37648;BME280;23490;53.656;10.076;2023-02-04T07:06:51;99928.16;;;-145.95;100.00
37648;BME280;23490;53.656;10.076;2023-02-04T07:09:16;99942.59;;;-145.95;100.00
37648;BME280;23490;53.656;10.076;2023-02-04T07:11:41;99905.44;;;-145.95;100.00
37648;BME280;23490;53.656;10.076;2023-02-04T07:14:07;99921.94;;;-145.95;100.00
37648;BME280;23490;53.656;10.076;2023-02-04T07:16:34;99955.00;;;-145.95;100.00
37648;BME280;23490;53.656;10.076;2023-02-04T07:18:59;99942.59;;;-145.95;100.00
37648;BME280;23490;53.656;10.076;2023-02-04T07:21:24;99967.41;;;-145.95;100.00
37648;BME280;23490;53.656;10.076;2023-02-04T07:23:51;99959.13;;;-145.95;100.00
37648;BME280;23490;53.656;10.076;2023-02-04T07:26:16;99973.59;;;-145.95;100.00
37648;BME280;23490;53.656;10.076;2023-02-04T07:28:41;99963.25;;;-145.95;100.00
37648;BME280;23490;53.656;10.076;2023-02-04T07:31:07;99930.22;;;-145.95;100.00
37648;BME280;23490;53.656;10.076;2023-02-04T07:33:33;99940.53;;;-145.95;100.00
37648;BME280;23490;53.656;10.076;2023-02-04T07:35:58;99921.94;;;-145.95;100.00
37648;BME280;23490;53.656;10.076;2023-02-04T07:38:23;99913.69;;;-145.95;100.00
37648;BME280;23490;53.656;10.076;2023-02-04T07:40:49;99957.06;;;-145.95;100.00
37648;BME280;23490;53.656;10.076;2023-02-04T07:43:14;99944.69;;;-145.95;100.00
37648;BME280;23490;53.656;10.076;2023-02-04T07:45:40;99936.41;;;-145.95;100.00
37648;BME280;23490;53.656;10.076;2023-02-04T07:48:05;99979.78;;;-145.95;100.00
37648;BME280;23490;53.656;10.076;2023-02-04T07:50:31;99938.47;;;-145.95;100.00
37648;BME280;23490;53.656;10.076;2023-02-04T07:52:56;99921.94;;;-145.95;100.00
37648;BME280;23490;53.656;10.076;2023-02-04T07:55:21;99934.34;;;-145.95;100.00
37648;BME280;23490;53.656;10.076;2023-02-04T07:57:47;99932.28;;;-145.95;100.00
37648;BME280;23490;53.656;10.076;2023-02-04T08:00:12;99872.38;;;-145.95;100.00
37648;BME280;23490;53.656;10.076;2023-02-04T08:02:39;99913.69;;;-145.95;100.00
37648;BME280;23490;53.656;10.076;2023-02-04T08:05:05;99911.63;;;-145.95;100.00
37648;BME280;23490;53.656;10.076;2023-02-04T08:07:31;99888.91;;;-145.95;100.00
37648;BME280;23490;53.656;10.076;2023-02-04T08:09:56;99950.88;;;-145.95;100.00
37648;BME280;23490;53.656;10.076;2023-02-04T08:12:21;99913.69;;;-145.95;100.00
37648;BME280;23490;53.656;10.076;2023-02-04T08:14:47;99893.03;;;-145.95;100.00
37648;BME280;23490;53.656;10.076;2023-02-04T08:17:12;99901.31;;;-145.95;100.00
37648;BME280;23490;53.656;10.076;2023-02-04T08:19:37;99955.00;;;-145.95;100.00
37648;BME280;23490;53.656;10.076;2023-02-04T08:22:03;99901.31;;;-145.95;100.00
37648;BME280;23490;53.656;10.076;2023-02-04T08:24:28;99880.66;;;-145.95;100.00
37648;BME280;23490;53.656;10.076;2023-02-04T08:26:53;99890.97;;;-145.95;100.00
37648;BME280;23490;53.656;10.076;2023-02-04T08:29:19;99876.50;;;-145.95;100.00
37648;BME280;23490;53.656;10.076;2023-02-04T08:31:44;99930.22;;;-145.95;100.00
37648;BME280;23490;53.656;10.076;2023-02-04T08:34:11;99886.84;;;-145.95;100.00
37648;BME280;23490;53.656;10.076;2023-02-04T08:36:37;99899.22;;;-145.95;100.00
37648;BME280;23490;53.656;10.076;2023-02-04T08:39:02;99880.66;;;-145.95;100.00
37648;BME280;23490;53.656;10.076;2023-02-04T08:41:28;99895.09;;;-145.95;100.00
37648;BME280;23490;53.656;10.076;2023-02-04T08:43:53;99872.38;;;-145.95;100.00
37648;BME280;23490;53.656;10.076;2023-02-04T08:46:19;99872.38;;;-145.95;100.00
37648;BME280;23490;53.656;10.076;2023-02-04T08:48:44;99905.44;;;-145.95;100.00
37648;BME280;23490;53.656;10.076;2023-02-04T08:51:09;99880.66;;;-145.95;100.00
37648;BME280;23490;53.656;10.076;2023-02-04T08:53:35;99868.25;;;-145.95;100.00
37648;BME280;23490;53.656;10.076;2023-02-04T08:56:01;99851.72;;;-145.95;100.00
37648;BME280;23490;53.656;10.076;2023-02-04T08:58:27;99851.72;;;-145.95;100.00
37648;BME280;23490;53.656;10.076;2023-02-04T09:00:52;99845.53;;;-145.95;100.00
37648;BME280;23490;53.656;10.076;2023-02-04T09:03:17;99833.13;;;-145.95;100.00
37648;BME280;23490;53.656;10.076;2023-02-04T09:05:43;99839.34;;;-145.95;100.00
37648;BME280;23490;53.656;10.076;2023-02-04T09:08:08;99779.44;;;-145.95;100.00
37648;BME280;23490;53.656;10.076;2023-02-04T09:10:33;99781.50;;;-145.95;100.00
37648;BME280;23490;53.656;10.076;2023-02-04T09:12:58;99843.47;;;-145.95;100.00
37648;BME280;23490;53.656;10.076;2023-02-04T09:15:24;99826.94;;;-145.95;100.00
37648;BME280;23490;53.656;10.076;2023-02-04T09:17:50;99829.00;;;-145.95;100.00
37648;BME280;23490;53.656;10.076;2023-02-04T09:20:18;99826.94;;;-145.95;100.00
37648;BME280;23490;53.656;10.076;2023-02-04T09:22:44;99802.16;;;-145.95;100.00
37648;BME280;23490;53.656;10.076;2023-02-04T09:25:09;99818.69;;;-145.95;99.91
37648;BME280;23490;53.656;10.076;2023-02-04T09:27:34;99793.91;;;-145.95;100.00
37648;BME280;23490;53.656;10.076;2023-02-04T09:30:00;99802.16;;;-145.95;100.00
37648;BME280;23490;53.656;10.076;2023-02-04T09:32:25;99793.91;;;-145.95;100.00
37648;BME280;23490;53.656;10.076;2023-02-04T09:34:50;99806.28;;;-145.95;100.00
37648;BME280;23490;53.656;10.076;2023-02-04T09:37:16;99729.88;;;-145.95;100.00
37648;BME280;23490;53.656;10.076;2023-02-04T09:39:41;99781.50;;;-145.95;97.26
37648;BME280;23490;53.656;10.076;2023-02-04T09:42:10;99839.34;;;-145.95;95.61
37648;BME280;23490;53.656;10.076;2023-02-04T09:44:37;99756.72;;;-145.95;97.16
37648;BME280;23490;53.656;10.076;2023-02-04T09:47:02;99785.63;;;-145.95;97.67
37648;BME280;23490;53.656;10.076;2023-02-04T09:49:28;99802.16;;;-145.95;96.62
37648;BME280;23490;53.656;10.076;2023-02-04T09:51:53;99793.91;;;-145.95;94.73
37648;BME280;23490;53.656;10.076;2023-02-04T09:54:21;99791.81;;;-145.95;94.21
37648;BME280;23490;53.656;10.076;2023-02-04T09:56:47;99793.91;;;-145.95;94.72
37648;BME280;23490;53.656;10.076;2023-02-04T09:59:15;99762.91;;;-145.95;95.74
37648;BME280;23490;53.656;10.076;2023-02-04T10:01:41;99808.34;;;-145.95;96.44
37648;BME280;23490;53.656;10.076;2023-02-04T10:04:12;99806.28;;;-145.95;93.71
37648;BME280;23490;53.656;10.076;2023-02-04T10:06:39;99787.69;;;-145.95;94.26
37648;BME280;23490;53.656;10.076;2023-02-04T10:09:04;99793.91;;;-145.95;92.26
37648;BME280;23490;53.656;10.076;2023-02-04T10:11:33;99789.75;;;-145.95;92.78
37648;BME280;23490;53.656;10.076;2023-02-04T10:14:00;99769.13;;;-145.95;93.79
37648;BME280;23490;53.656;10.076;2023-02-04T10:16:31;99744.31;;;-145.95;92.33
37648;BME280;23490;53.656;10.076;2023-02-04T10:19:06;99781.50;;;-145.95;91.33
37648;BME280;23490;53.656;10.076;2023-02-04T10:21:35;99756.72;;;-145.95;92.07
37648;BME280;23490;53.656;10.076;2023-02-04T10:24:03;99760.84;;;-145.95;90.11
37648;BME280;23490;53.656;10.076;2023-02-04T10:26:30;99738.13;;;-145.95;88.82
37648;BME280;23490;53.656;10.076;2023-02-04T10:29:16;99760.84;;;-145.95;87.35
37648;BME280;23490;53.656;10.076;2023-02-04T10:31:44;99760.84;;;-145.95;90.22
37648;BME280;23490;53.656;10.076;2023-02-04T10:34:14;99715.41;;;-145.95;88.66
37648;BME280;23490;53.656;10.076;2023-02-04T10:36:42;99723.66;;;-145.95;88.88
37648;BME280;23490;53.656;10.076;2023-02-04T10:39:16;99725.75;;;-145.95;88.82
37648;BME280;23490;53.656;10.076;2023-02-04T10:41:50;99657.56;;;-145.95;88.23
37648;BME280;23490;53.656;10.076;2023-02-04T10:44:19;99694.75;;;-145.95;87.06
37648;BME280;23490;53.656;10.076;2023-02-04T10:46:45;99632.78;;;-145.95;87.81
37648;BME280;23490;53.656;10.076;2023-02-04T10:49:22;99641.06;;;-145.95;87.72
37648;BME280;23490;53.656;10.076;2023-02-04T10:51:49;99616.28;;;-145.95;85.27
37648;BME280;23490;53.656;10.076;2023-02-04T10:54:14;99603.88;;;-145.95;84.74
37648;BME280;23490;53.656;10.076;2023-02-04T10:59:52;99649.31;;;-145.95;84.06
37648;BME280;23490;53.656;10.076;2023-02-04T11:05:16;99651.38;;;-145.95;80.87
37648;BME280;23490;53.656;10.076;2023-02-04T11:07:43;99632.78;;;-145.95;82.07
37648;BME280;23490;53.656;10.076;2023-02-04T11:10:12;99641.06;;;-145.95;81.60
37648;BME280;23490;53.656;10.076;2023-02-04T11:12:45;99620.41;;;-145.95;83.21
37648;BME280;23490;53.656;10.076;2023-02-04T11:18:08;99591.50;;;-145.95;85.40
37648;BME280;23490;53.656;10.076;2023-02-04T11:20:34;99608.00;;;-145.95;85.38
37648;BME280;23490;53.656;10.076;2023-02-04T11:23:33;99632.78;;;-145.95;80.67
37648;BME280;23490;53.656;10.076;2023-02-04T11:26:02;99612.16;;;-145.95;81.08
37648;BME280;23490;53.656;10.076;2023-02-04T11:28:47;99583.22;;;-145.95;83.91
37648;BME280;23490;53.656;10.076;2023-02-04T11:33:44;99626.59;;;-145.95;83.78
37648;BME280;23490;53.656;10.076;2023-02-04T11:36:12;99632.78;;;-145.95;83.82
37648;BME280;23490;53.656;10.076;2023-02-04T11:38:43;99608.00;;;-145.95;82.96
37648;BME280;23490;53.656;10.076;2023-02-04T11:41:15;99608.00;;;-145.95;81.46
37648;BME280;23490;53.656;10.076;2023-02-04T11:43:42;99574.97;;;-145.95;81.95
37648;BME280;23490;53.656;10.076;2023-02-04T11:46:16;99560.50;;;-145.95;80.16
37648;BME280;23490;53.656;10.076;2023-02-04T11:48:42;99513.00;;;-145.95;80.47
37648;BME280;23490;53.656;10.076;2023-02-04T11:51:11;99337.47;;;-145.95;79.13
37648;BME280;23490;53.656;10.076;2023-02-04T11:53:38;99451.06;;;-145.95;79.55
37648;BME280;23490;53.656;10.076;2023-02-04T11:56:03;99461.38;;;-145.95;77.52
37648;BME280;23490;53.656;10.076;2023-02-04T11:58:31;99504.75;;;-145.95;79.35
37648;BME280;23490;53.656;10.076;2023-02-04T12:00:57;99515.06;;;-145.95;76.15
37648;BME280;23490;53.656;10.076;2023-02-04T12:03:29;99550.19;;;-145.95;78.66
37648;BME280;23490;53.656;10.076;2023-02-04T12:05:56;99537.78;;;-145.95;79.90
37648;BME280;23490;53.656;10.076;2023-02-04T12:13:22;99554.31;;;-145.95;77.68
37648;BME280;23490;53.656;10.076;2023-02-04T12:16:06;99583.22;;;-145.95;78.27
37648;BME280;23490;53.656;10.076;2023-02-04T12:18:33;99595.63;;;-145.95;77.94
37648;BME280;23490;53.656;10.076;2023-02-04T12:20:59;99597.69;;;-145.95;77.15
37648;BME280;23490;53.656;10.076;2023-02-04T12:23:26;99599.75;;;-145.95;82.01
37648;BME280;23490;53.656;10.076;2023-02-04T12:25:53;99612.16;;;-145.95;76.04
37648;BME280;23490;53.656;10.076;2023-02-04T12:28:18;99583.22;;;-145.95;76.53
37648;BME280;23490;53.656;10.076;2023-02-04T12:30:44;99585.28;;;-145.95;76.46
37648;BME280;23490;53.656;10.076;2023-02-04T12:33:09;99612.16;;;-145.95;76.65
37648;BME280;23490;53.656;10.076;2023-02-04T12:35:35;99616.28;;;-145.95;77.65